Terminal Aerodrome Forecast
Issued by NWS Albany, NY

Home | Current Version | Previous Version | Text Only | Print | Product List | Glossary On
Versions: 1 2 3 4 5 6 7 8 9 10 11 12 13 14 15 16 17 18 19 20 21 22 23 24 25 26 27 28 29
000
FTUS41 KALY 161700 CCA
TAFGFL
TAF COR
KGFL 161731Z 1618/1718 16005KT P6SM VCSH SCT020 BKN050
      TEMPO 1618/1620 BKN020 BKN050
     FM162000 VRB03KT P6SM SCT050
     FM170000 00000KT P6SM SKC
     FM170300 00000KT 3SM BR SKC
     FM170500 00000KT 2SM BR BKN008
     FM171200 VRB03KT P6SM FEW050=

USA.gov is the U.S. government's official web portal to all federal, state and local government web resources and services.